Time;durP1;ratioP1;P1;durP2;ratioP2;P2;SDS_P1;SDS_P2;PMS_P1;PMS_P2;Temp;Humidity;BMP_temperature;BMP_pressure;BME280_temperature;BME280_humidity;BME280_pressure;Samples;Min_cycle;Max_cycle;Signal;HPM_P1;HPM_P2
2024/02/08 00:01:32;;;;;;;3.67;1.55;;;2.40;99.90;;;;;;4937916;29;20024;-66
2024/02/08 00:03:57;;;;;;;2.90;1.48;;;2.40;99.90;;;;;;4939938;29;20035;-65
2024/02/08 00:06:23;;;;;;;3.90;1.23;;;2.30;99.90;;;;;;4939377;29;20502;-65
2024/02/08 00:08:53;;;;;;;5.40;1.15;;;2.30;99.90;;;;;;4938098;29;20042;-65
2024/02/08 00:11:20;;;;;;;6.07;1.52;;;2.20;99.90;;;;;;4939542;28;20043;-65
2024/02/08 00:13:47;;;;;;;4.57;1.63;;;2.20;99.90;;;;;;4936398;29;20521;-65
2024/02/08 00:16:13;;;;;;;5.65;1.85;;;2.20;99.90;;;;;;4935804;29;20042;-65
2024/02/08 00:18:39;;;;;;;4.45;1.80;;;2.10;99.90;;;;;;4938293;28;20031;-65
2024/02/08 00:21:09;;;;;;;5.53;1.92;;;2.10;99.90;;;;;;4938185;29;20035;-65
2024/02/08 00:23:36;;;;;;;4.55;1.95;;;2.10;99.90;;;;;;4937842;28;20071;-65
2024/02/08 00:26:03;;;;;;;4.25;1.83;;;2.10;99.90;;;;;;4937431;29;20743;-66
2024/02/08 00:28:28;;;;;;;4.72;1.50;;;2.10;99.90;;;;;;4938088;28;20094;-65
2024/02/08 00:30:54;;;;;;;4.72;1.60;;;2.00;99.90;;;;;;4938490;29;20027;-65
2024/02/08 00:33:22;;;;;;;9.70;1.67;;;2.00;99.90;;;;;;4936760;29;20055;-65
2024/02/08 00:35:48;;;;;;;3.85;1.27;;;2.00;99.90;;;;;;4936939;28;20032;-65
2024/02/08 00:38:14;;;;;;;6.45;1.52;;;2.00;99.90;;;;;;4935810;29;20815;-65
2024/02/08 00:40:40;;;;;;;5.03;1.17;;;2.00;99.90;;;;;;4935472;29;20040;-65
2024/02/08 00:43:06;;;;;;;8.15;1.65;;;2.00;99.90;;;;;;4937186;29;20040;-65
2024/02/08 00:45:35;;;;;;;6.00;1.58;;;2.10;99.90;;;;;;4935499;29;20031;-65
2024/02/08 00:48:02;;;;;;;6.25;1.73;;;2.10;99.90;;;;;;4934151;29;20051;-65
2024/02/08 00:50:27;;;;;;;2.58;1.20;;;2.10;99.90;;;;;;4936013;29;20031;-65
2024/02/08 00:52:53;;;;;;;7.15;1.67;;;2.20;99.90;;;;;;4934770;29;20042;-65
2024/02/08 00:55:20;;;;;;;2.13;1.05;;;2.20;99.90;;;;;;4935825;28;20042;-65
2024/02/08 00:57:45;;;;;;;4.60;1.58;;;2.20;99.90;;;;;;4934871;29;20047;-65
2024/02/08 01:00:12;;;;;;;5.47;1.20;;;2.20;99.90;;;;;;4935203;29;20034;-65
2024/02/08 01:02:43;;;;;;;9.60;1.70;;;2.20;99.90;;;;;;4936297;28;20039;-66
2024/02/08 01:05:09;;;;;;;6.55;2.15;;;2.20;99.90;;;;;;4935385;29;20042;-66
2024/02/08 01:07:36;;;;;;;5.30;1.33;;;2.20;99.90;;;;;;4935910;29;20027;-65
2024/02/08 01:10:02;;;;;;;3.78;1.30;;;2.20;99.90;;;;;;4932452;28;20159;-65
2024/02/08 01:12:28;;;;;;;4.55;2.00;;;2.20;99.90;;;;;;4935305;29;20035;-65
2024/02/08 01:14:54;;;;;;;6.80;1.45;;;2.20;99.90;;;;;;4935713;28;20451;-66
2024/02/08 01:17:20;;;;;;;8.98;1.80;;;2.20;99.90;;;;;;4934775;29;20036;-65
2024/02/08 01:19:50;;;;;;;4.18;1.58;;;2.10;99.90;;;;;;4936348;29;20031;-65
2024/02/08 01:22:19;;;;;;;6.70;1.85;;;2.10;99.90;;;;;;4934014;29;20047;-66
2024/02/08 01:24:48;;;;;;;8.60;1.65;;;2.10;99.90;;;;;;4935423;29;20035;-66
2024/02/08 01:27:15;;;;;;;4.50;1.42;;;2.20;99.90;;;;;;4937243;29;20042;-66
2024/02/08 01:29:41;;;;;;;3.95;1.40;;;2.20;99.90;;;;;;4935425;29;20042;-65
2024/02/08 01:32:07;;;;;;;5.75;1.45;;;2.20;99.90;;;;;;4936137;29;20036;-65
2024/02/08 01:34:33;;;;;;;6.03;1.85;;;2.20;99.90;;;;;;4934696;29;20031;-66
2024/02/08 01:36:59;;;;;;;10.77;2.08;;;2.20;99.90;;;;;;4935363;29;20035;-66
2024/02/08 01:39:25;;;;;;;5.88;2.00;;;2.20;99.90;;;;;;4933526;29;20284;-65
2024/02/08 01:41:52;;;;;;;6.13;1.67;;;2.20;99.90;;;;;;4935324;29;20039;-66
2024/02/08 01:44:21;;;;;;;3.38;1.30;;;2.20;99.90;;;;;;4933831;28;20036;-65
2024/02/08 01:46:48;;;;;;;4.18;1.98;;;2.10;99.90;;;;;;4934191;29;20102;-66
2024/02/08 01:49:29;;;;;;;8.95;1.73;;;2.10;99.90;;;;;;4934999;29;20031;-66
2024/02/08 01:52:05;;;;;;;3.85;1.30;;;2.10;99.90;;;;;;4934925;29;20034;-66
2024/02/08 01:54:32;;;;;;;5.15;1.90;;;2.10;99.90;;;;;;4936149;28;20038;-66
2024/02/08 01:56:59;;;;;;;6.00;1.67;;;2.20;99.90;;;;;;4936284;29;20425;-66
2024/02/08 01:59:27;;;;;;;5.63;2.05;;;2.20;99.90;;;;;;4934835;29;20059;-65
2024/02/08 02:01:56;;;;;;;7.45;1.20;;;2.10;99.90;;;;;;4934656;29;20543;-67
2024/02/08 02:04:25;;;;;;;9.23;1.67;;;2.10;99.90;;;;;;4934602;29;20063;-66
2024/02/08 02:06:50;;;;;;;1.95;1.35;;;2.00;99.90;;;;;;4933103;29;20046;-66
2024/02/08 02:09:24;;;;;;;10.93;2.60;;;2.00;99.90;;;;;;4935468;29;20027;-65
2024/02/08 02:12:12;;;;;;;4.03;1.50;;;2.10;99.90;;;;;;4933637;28;20043;-65
2024/02/08 02:14:38;;;;;;;6.15;1.70;;;2.10;99.90;;;;;;4933975;29;20067;-66
2024/02/08 02:17:26;;;;;;;2.08;1.33;;;2.10;99.90;;;;;;4934776;29;20031;-66
2024/02/08 02:20:05;;;;;;;4.97;2.30;;;2.10;99.90;;;;;;4934932;29;20095;-65
2024/02/08 02:22:34;;;;;;;9.48;2.17;;;2.10;99.90;;;;;;4932759;29;20486;-66
2024/02/08 02:25:02;;;;;;;4.88;1.70;;;2.20;99.90;;;;;;4934723;28;20047;-66
2024/02/08 02:27:31;;;;;;;6.13;1.48;;;2.20;99.90;;;;;;4932690;29;20115;-65
2024/02/08 02:29:57;;;;;;;8.70;1.30;;;2.10;99.90;;;;;;4934061;29;20051;-66
2024/02/08 02:32:30;;;;;;;4.45;1.20;;;2.00;99.90;;;;;;4936440;29;20406;-65
2024/02/08 02:34:56;;;;;;;3.75;1.52;;;2.00;99.90;;;;;;4934240;29;20035;-66
2024/02/08 02:37:22;;;;;;;6.38;1.55;;;2.10;99.90;;;;;;4935314;29;20103;-66
2024/02/08 02:39:49;;;;;;;4.78;1.60;;;2.10;99.90;;;;;;4934472;28;20073;-65
2024/02/08 02:42:15;;;;;;;5.18;1.30;;;2.10;99.90;;;;;;4935015;29;20034;-65
2024/02/08 02:44:41;;;;;;;1.85;0.85;;;2.10;99.90;;;;;;4930233;29;20031;-65
2024/02/08 02:47:07;;;;;;;8.63;1.58;;;2.10;99.90;;;;;;4932202;28;20775;-66
2024/02/08 02:49:36;;;;;;;11.10;1.77;;;2.10;99.90;;;;;;4934032;28;20119;-66
2024/02/08 02:52:07;;;;;;;6.78;1.50;;;2.10;99.90;;;;;;4929447;29;20040;-66
2024/02/08 02:54:34;;;;;;;4.32;1.70;;;2.10;99.90;;;;;;4933588;29;20031;-66
2024/02/08 02:57:00;;;;;;;7.78;1.83;;;2.10;99.90;;;;;;4932790;29;20059;-66
2024/02/08 02:59:26;;;;;;;7.20;1.52;;;2.20;99.90;;;;;;4930431;29;20709;-66
2024/02/08 03:01:55;;;;;;;6.38;1.80;;;2.10;99.90;;;;;;4934085;29;20032;-65
2024/02/08 03:04:22;;;;;;;3.60;1.27;;;2.10;99.90;;;;;;4934369;28;20127;-65
2024/02/08 03:06:53;;;;;;;8.80;2.50;;;2.10;99.90;;;;;;4935332;29;20062;-66
2024/02/08 03:09:23;;;;;;;5.47;1.85;;;2.10;99.90;;;;;;4931791;29;20677;-65
2024/02/08 03:11:49;;;;;;;5.70;1.70;;;2.10;99.90;;;;;;4933784;29;20035;-66
2024/02/08 03:14:15;;;;;;;2.42;1.30;;;2.10;99.90;;;;;;4932879;29;20043;-65
2024/02/08 03:16:42;;;;;;;6.80;1.77;;;2.00;99.90;;;;;;4933583;28;20023;-65
2024/02/08 03:19:08;;;;;;;4.15;1.52;;;2.00;99.90;;;;;;4937423;29;20031;-65
2024/02/08 03:21:40;;;;;;;6.70;2.25;;;2.00;99.90;;;;;;4937714;28;20028;-65
2024/02/08 03:24:09;;;;;;;3.55;1.00;;;2.10;99.90;;;;;;4937446;29;20039;-66
2024/02/08 03:26:46;;;;;;;14.43;1.80;;;2.10;99.90;;;;;;4936335;28;20086;-66
2024/02/08 03:29:13;;;;;;;6.75;1.45;;;2.20;99.90;;;;;;4937873;29;20548;-65
2024/02/08 03:31:47;;;;;;;3.08;1.50;;;2.20;99.90;;;;;;4939722;28;20039;-66
2024/02/08 03:34:23;;;;;;;9.13;1.65;;;2.20;99.90;;;;;;4938469;29;20026;-66
2024/02/08 03:36:51;;;;;;;3.03;1.33;;;2.30;99.90;;;;;;4937940;29;20039;-65
2024/02/08 03:39:26;;;;;;;7.10;1.80;;;2.30;99.90;;;;;;4935103;29;20456;-66
2024/02/08 03:42:01;;;;;;;7.68;1.42;;;2.30;99.90;;;;;;4938043;29;20039;-65
2024/02/08 03:44:30;;;;;;;8.52;1.77;;;2.30;99.90;;;;;;4936534;29;20457;-65
2024/02/08 03:47:07;;;;;;;5.70;2.13;;;2.30;99.90;;;;;;4936329;29;20101;-66
2024/02/08 03:49:37;;;;;;;3.83;1.50;;;2.40;99.90;;;;;;4935644;29;20050;-66
2024/02/08 03:52:04;;;;;;;4.53;1.60;;;2.40;99.90;;;;;;4937388;29;20038;-65
2024/02/08 03:54:30;;;;;;;7.53;2.10;;;2.50;99.90;;;;;;4935712;29;20052;-65
2024/02/08 03:57:00;;;;;;;6.70;1.67;;;2.50;99.90;;;;;;4937784;29;20557;-66
2024/02/08 03:59:26;;;;;;;4.10;1.95;;;2.60;99.90;;;;;;4940926;28;20034;-66
2024/02/08 04:02:03;;;;;;;10.50;1.77;;;2.60;99.90;;;;;;4937861;29;20079;-65
2024/02/08 04:04:59;;;;;;;6.10;1.80;;;2.60;99.90;;;;;;4935547;29;20046;-66
2024/02/08 04:10:29;;;;;;;7.45;1.80;;;2.60;99.90;;;;;;4936374;29;20043;-66
2024/02/08 04:54:09;;;;;;;10.15;2.65;;;2.90;99.90;;;;;;4935437;29;20872;-66
2024/02/08 04:56:35;;;;;;;10.20;2.70;;;2.90;99.90;;;;;;4936103;28;20035;-66
2024/02/08 04:59:05;;;;;;;6.38;2.50;;;2.90;99.90;;;;;;4936444;28;20031;-66
2024/02/08 05:01:37;;;;;;;10.82;3.60;;;2.90;99.90;;;;;;4935785;29;20645;-66
2024/02/08 05:04:04;;;;;;;7.60;3.17;;;2.90;99.90;;;;;;4933874;29;20089;-66
2024/02/08 05:06:30;;;;;;;7.68;2.88;;;2.90;99.90;;;;;;4934846;29;20040;-66
2024/02/08 05:08:59;;;;;;;9.82;2.97;;;2.90;99.90;;;;;;4934660;29;20039;-66
2024/02/08 05:11:28;;;;;;;7.65;2.80;;;2.80;99.90;;;;;;4936140;29;20097;-66
2024/02/08 05:14:00;;;;;;;8.35;2.75;;;2.90;99.90;;;;;;4936495;28;20066;-66
2024/02/08 05:16:27;;;;;;;7.05;2.20;;;2.80;99.90;;;;;;4936797;29;20406;-66
2024/02/08 05:18:55;;;;;;;5.88;2.63;;;2.80;99.90;;;;;;4936571;28;20028;-66
2024/02/08 05:21:22;;;;;;;9.23;2.20;;;2.80;99.90;;;;;;4937474;29;20733;-66
2024/02/08 05:23:51;;;;;;;13.30;3.42;;;2.80;99.90;;;;;;4931288;29;20782;-66
2024/02/08 05:26:21;;;;;;;5.90;2.28;;;2.90;99.90;;;;;;4931459;29;20621;-66
2024/02/08 05:28:48;;;;;;;5.55;1.92;;;2.80;99.90;;;;;;4934771;29;20474;-65
2024/02/08 05:31:17;;;;;;;7.25;2.35;;;2.80;99.90;;;;;;4933637;29;20031;-66
2024/02/08 05:33:43;;;;;;;8.45;2.38;;;2.80;99.90;;;;;;4935557;29;20074;-66
2024/02/08 05:36:12;;;;;;;7.65;1.90;;;2.80;99.90;;;;;;4933708;28;20406;-66
2024/02/08 05:38:42;;;;;;;8.98;2.72;;;2.80;99.90;;;;;;4933766;29;20719;-66
2024/02/08 05:41:09;;;;;;;7.25;2.55;;;2.80;99.90;;;;;;4933187;28;20020;-66
2024/02/08 05:43:44;;;;;;;8.43;2.97;;;2.80;99.90;;;;;;4934272;29;20042;-66
2024/02/08 05:47:03;;;;;;;9.60;2.70;;;2.80;99.90;;;;;;4929491;29;20036;-66
2024/02/08 05:49:11;;;;;;;10.75;2.60;;;2.80;99.90;;;;;;4921437;29;20122;-66
2024/02/08 05:51:42;;;;;;;9.45;2.83;;;2.80;99.90;;;;;;4932664;29;20043;-66
2024/02/08 05:54:08;;;;;;;8.77;2.92;;;2.90;99.90;;;;;;4934567;28;20114;-66
2024/02/08 05:56:39;;;;;;;7.13;2.10;;;2.90;99.90;;;;;;4932180;28;20102;-66
2024/02/08 05:59:08;;;;;;;12.10;3.17;;;2.90;99.90;;;;;;4935023;28;20043;-66
2024/02/08 06:01:58;;;;;;;9.57;2.50;;;2.90;99.90;;;;;;4932366;29;20035;-66
2024/02/08 06:04:34;;;;;;;11.15;2.83;;;2.90;99.90;;;;;;4934101;29;20046;-66
2024/02/08 06:07:07;;;;;;;11.57;2.72;;;2.90;99.90;;;;;;4932407;28;20035;-66
2024/02/08 06:12:36;;;;;;;5.85;2.42;;;2.90;99.90;;;;;;4933109;29;20035;-66
2024/02/08 06:15:21;;;;;;;6.30;2.95;;;2.90;99.90;;;;;;4933611;28;20046;-66
2024/02/08 06:18:06;;;;;;;5.35;2.60;;;2.90;99.90;;;;;;4928702;29;20028;-67
2024/02/08 06:20:43;;;;;;;7.13;2.83;;;2.90;99.90;;;;;;4932059;29;20523;-66
2024/02/08 06:23:26;;;;;;;12.40;3.38;;;2.90;99.90;;;;;;4933561;29;20066;-66
2024/02/08 06:28:46;;;;;;;8.38;2.92;;;3.00;99.90;;;;;;4932808;29;20488;-66
2024/02/08 06:31:17;;;;;;;6.68;3.10;;;3.00;99.90;;;;;;4934178;29;20027;-66
2024/02/08 06:36:30;;;;;;;7.88;2.40;;;3.00;99.90;;;;;;4934363;29;20035;-66
2024/02/08 06:39:19;;;;;;;7.55;3.03;;;2.90;99.90;;;;;;4933633;29;20093;-66
2024/02/08 06:42:07;;;;;;;6.25;3.03;;;2.90;99.90;;;;;;4934242;29;20090;-66
2024/02/08 06:47:29;;;;;;;8.63;3.78;;;2.90;99.90;;;;;;4931005;29;20122;-65
2024/02/08 07:37:18;;;;;;;10.82;4.32;;;3.10;99.90;;;;;;4930386;29;20039;-65
2024/02/08 07:39:53;;;;;;;7.30;4.28;;;3.10;99.90;;;;;;4935104;29;20460;-65
2024/02/08 07:42:29;;;;;;;6.70;3.80;;;3.10;99.90;;;;;;4934800;29;20547;-64
2024/02/08 07:45:04;;;;;;;11.82;5.07;;;3.10;99.90;;;;;;4937480;29;20039;-64
2024/02/08 07:47:36;;;;;;;13.30;5.07;;;3.20;99.90;;;;;;4931954;29;20055;-66
2024/02/08 07:50:09;;;;;;;8.60;4.15;;;3.20;99.90;;;;;;4935235;29;20036;-64
2024/02/08 07:52:55;;;;;;;11.02;5.32;;;3.30;99.90;;;;;;4934555;29;20037;-65
2024/02/08 07:55:46;;;;;;;12.32;5.05;;;3.30;99.90;;;;;;4919534;29;20044;-65
2024/02/08 07:58:08;;;;;;;10.88;4.63;;;3.40;99.90;;;;;;4933061;29;20063;-64
2024/02/08 08:03:31;;;;;;;11.40;4.35;;;3.40;99.90;;;;;;4934677;28;20043;-65
2024/02/08 08:05:56;;;;;;;8.50;3.97;;;3.50;99.90;;;;;;4909638;28;20059;-65
2024/02/08 08:08:28;;;;;;;9.88;4.63;;;3.60;99.90;;;;;;4944199;28;20035;-64
2024/02/08 08:11:15;;;;;;;14.32;6.43;;;3.70;99.90;;;;;;4931737;28;20032;-65
2024/02/08 08:14:06;;;;;;;17.33;8.10;;;3.80;99.90;;;;;;4933695;29;20535;-65
2024/02/08 08:19:07;;;;;;;11.93;6.22;;;3.90;99.90;;;;;;4936443;29;20042;-65
2024/02/08 08:24:28;;;;;;;9.00;4.93;;;3.90;99.90;;;;;;4935388;29;20137;-65
2024/02/08 08:27:25;;;;;;;9.63;4.47;;;4.10;99.90;;;;;;4933888;29;20599;-65
2024/02/08 08:29:58;;;;;;;13.68;4.70;;;4.10;99.90;;;;;;4948624;28;20042;-64
2024/02/08 08:40:39;;;;;;;10.27;4.90;;;4.40;99.90;;;;;;4932644;29;20043;-68
2024/02/08 08:43:10;;;;;;;10.57;5.63;;;4.40;99.90;;;;;;4937444;29;20035;-67
2024/02/08 08:45:40;;;;;;;9.27;5.60;;;4.40;99.90;;;;;;4932909;29;20519;-69
2024/02/08 08:48:07;;;;;;;8.77;5.10;;;4.40;99.90;;;;;;4928839;28;20051;-68
2024/02/08 08:50:33;;;;;;;14.77;5.93;;;4.50;99.90;;;;;;4933370;28;20441;-68
2024/02/08 08:53:16;;;;;;;12.20;6.57;;;4.60;99.90;;;;;;4931318;29;20118;-68
2024/02/08 08:55:49;;;;;;;9.88;5.13;;;4.70;99.90;;;;;;4930668;29;20043;-68
2024/02/08 08:58:15;;;;;;;11.38;5.55;;;4.60;99.90;;;;;;4919816;29;20443;-64
2024/02/08 09:00:47;;;;;;;11.68;6.13;;;4.70;99.90;;;;;;4935176;29;20103;-64
2024/02/08 09:03:26;;;;;;;11.18;6.43;;;4.70;99.90;;;;;;4934472;29;20113;-64
2024/02/08 09:24:44;;;;;;;13.13;6.47;;;5.60;99.90;;;;;;5334989;23;20050;-63
2024/02/08 09:27:16;;;;;;;12.35;7.05;;;5.80;99.90;;;;;;5022610;28;20356;-63
2024/02/08 09:29:43;;;;;;;12.40;7.18;;;6.00;99.90;;;;;;5022969;28;20026;-63
2024/02/08 09:34:58;;;;;;;11.88;6.10;;;6.40;99.90;;;;;;5014955;28;20845;-63
2024/02/08 09:37:24;;;;;;;9.70;5.95;;;6.80;99.90;;;;;;5013515;28;20037;-63
2024/02/08 09:42:29;;;;;;;10.05;6.03;;;7.10;99.90;;;;;;5017147;28;20076;-63
2024/02/08 09:47:56;;;;;;;10.95;6.35;;;7.30;99.90;;;;;;5015854;28;20109;-63
2024/02/08 09:50:36;;;;;;;14.40;6.75;;;7.50;99.90;;;;;;5015353;28;20030;-64
2024/02/08 09:53:17;;;;;;;14.00;7.57;;;7.70;99.90;;;;;;4999762;28;20067;-63
2024/02/08 09:55:55;;;;;;;13.05;7.20;;;8.20;99.90;;;;;;5003600;28;20111;-62
2024/02/08 09:58:35;;;;;;;16.10;8.35;;;8.30;99.90;;;;;;5003614;28;20034;-64
2024/02/08 10:01:02;;;;;;;12.90;6.72;;;7.90;99.90;;;;;;5003446;28;20496;-68
2024/02/08 10:03:32;;;;;;;14.50;7.32;;;7.70;99.90;;;;;;5017172;28;20136;-68
2024/02/08 10:06:12;;;;;;;15.13;7.55;;;7.60;99.90;;;;;;5013234;28;20149;-69
2024/02/08 10:09:08;;;;;;;14.43;6.80;;;7.50;99.90;;;;;;5018091;28;20017;-69
2024/02/08 10:11:43;;;;;;;15.45;6.72;;;7.40;99.90;;;;;;5003545;28;20116;-64
2024/02/08 10:14:25;;;;;;;13.65;6.55;;;7.40;99.90;;;;;;5015280;28;20362;-64
2024/02/08 10:16:58;;;;;;;14.38;6.88;;;7.50;99.90;;;;;;5016216;28;20063;-64
2024/02/08 10:21:57;;;;;;;14.38;6.95;;;7.50;99.90;;;;;;5015491;28;20032;-64
2024/02/08 10:27:19;;;;;;;12.93;6.47;;;7.50;99.90;;;;;;4993603;28;20037;-68
2024/02/08 10:30:05;;;;;;;15.35;7.75;;;7.50;99.90;;;;;;5001897;28;20022;-68
2024/02/08 10:32:34;;;;;;;13.43;6.63;;;7.50;99.90;;;;;;5017331;28;20038;-69
2024/02/08 10:35:14;;;;;;;17.25;6.75;;;7.50;99.90;;;;;;4999453;28;20037;-67
2024/02/08 10:37:47;;;;;;;15.73;7.70;;;7.40;99.90;;;;;;5015547;28;20571;-64
2024/02/08 10:40:29;;;;;;;11.55;5.72;;;7.50;99.90;;;;;;5007734;28;20137;-68
2024/02/08 10:42:59;;;;;;;17.35;6.55;;;7.60;99.90;;;;;;5016281;28;20025;-68
2024/02/08 10:45:32;;;;;;;15.35;6.75;;;7.40;99.90;;;;;;5015091;28;20476;-64
2024/02/08 10:47:59;;;;;;;15.55;6.72;;;7.30;99.90;;;;;;5015711;28;20690;-65
2024/02/08 10:50:28;;;;;;;19.23;7.85;;;7.30;99.90;;;;;;5016598;28;20565;-68
2024/02/08 10:53:00;;;;;;;18.92;6.15;;;7.30;99.90;;;;;;5023359;28;20031;-69
2024/02/08 10:55:36;;;;;;;18.05;7.55;;;7.40;99.90;;;;;;5000364;28;20037;-68
2024/02/08 11:03:28;;;;;;;14.30;6.68;;;7.40;99.90;;;;;;5016439;28;20032;-67
2024/02/08 11:06:00;;;;;;;10.25;6.05;;;7.40;99.90;;;;;;5011618;28;20179;-71
2024/02/08 11:08:33;;;;;;;17.52;7.38;;;7.40;99.90;;;;;;5015409;28;20026;-70
2024/02/08 11:11:12;;;;;;;14.27;7.32;;;7.60;99.90;;;;;;5017876;28;20041;-69
2024/02/08 11:13:59;;;;;;;15.63;6.65;;;7.70;99.90;;;;;;5019394;28;20068;-70
2024/02/08 11:16:33;;;;;;;15.50;7.30;;;7.90;99.90;;;;;;5003744;28;20522;-70
2024/02/08 11:19:04;;;;;;;17.77;7.78;;;7.90;99.90;;;;;;5017261;28;20037;-66
2024/02/08 11:21:43;;;;;;;17.52;7.40;;;7.90;99.90;;;;;;5016485;28;20137;-66
2024/02/08 11:24:27;;;;;;;19.75;8.07;;;7.80;99.90;;;;;;5016550;28;20033;-66
2024/02/08 11:27:01;;;;;;;17.08;7.30;;;7.90;99.90;;;;;;5017785;28;20034;-66
2024/02/08 11:29:28;;;;;;;14.98;7.35;;;8.00;99.90;;;;;;5016202;28;20034;-70
2024/02/08 11:31:57;;;;;;;22.55;7.85;;;8.10;99.90;;;;;;5018849;28;20036;-66
2024/02/08 11:34:33;;;;;;;16.45;7.53;;;8.20;99.90;;;;;;5015692;28;20034;-67
2024/02/08 11:37:15;;;;;;;16.38;6.43;;;8.30;99.90;;;;;;5019126;28;20061;-66
2024/02/08 11:39:46;;;;;;;17.58;7.03;;;8.20;99.90;;;;;;5025210;28;20369;-66
2024/02/08 11:42:17;;;;;;;15.25;6.85;;;8.20;99.90;;;;;;5021573;28;20025;-66
2024/02/08 11:44:44;;;;;;;20.02;6.55;;;8.20;99.90;;;;;;5018703;28;20099;-70
2024/02/08 11:47:18;;;;;;;16.05;5.82;;;8.10;99.90;;;;;;5020326;28;20034;-66
2024/02/08 11:49:52;;;;;;;16.50;6.47;;;8.00;99.90;;;;;;5018964;28;20135;-66
2024/02/08 11:52:23;;;;;;;13.80;5.70;;;7.80;99.90;;;;;;5020644;28;20041;-70
2024/02/08 11:55:23;;;;;;;12.55;6.82;;;7.70;99.90;;;;;;5020130;28;20033;-69
2024/02/08 11:57:53;;;;;;;19.95;8.43;;;7.40;99.90;;;;;;5005922;28;20080;-69
2024/02/08 12:00:20;;;;;;;18.83;8.05;;;7.20;99.90;;;;;;5019276;28;20029;-69
2024/02/08 12:02:57;;;;;;;16.63;7.90;;;7.20;99.90;;;;;;5013529;28;20105;-66
2024/02/08 12:05:25;;;;;;;20.20;6.93;;;7.30;99.90;;;;;;5018476;28;20037;-66
2024/02/08 12:07:52;;;;;;;25.25;7.75;;;7.20;99.90;;;;;;5022607;28;20071;-66
2024/02/08 12:10:22;;;;;;;14.63;6.55;;;6.90;99.90;;;;;;5008646;28;20049;-66
2024/02/08 12:12:53;;;;;;;17.42;6.38;;;6.90;99.90;;;;;;5012292;28;20099;-66
2024/02/08 12:15:22;;;;;;;12.63;6.22;;;7.00;99.90;;;;;;5006143;28;20056;-69
2024/02/08 12:17:52;;;;;;;16.10;6.47;;;7.20;99.90;;;;;;5016704;28;20472;-70
2024/02/08 12:20:18;;;;;;;17.73;6.53;;;7.30;99.90;;;;;;5010471;28;20084;-70
2024/02/08 12:22:54;;;;;;;24.08;6.80;;;7.30;99.90;;;;;;5016428;28;20076;-69
2024/02/08 12:25:20;;;;;;;13.30;5.93;;;7.40;99.90;;;;;;5000585;28;20056;-66
2024/02/08 12:27:50;;;;;;;14.88;5.63;;;7.50;99.90;;;;;;5014143;28;20079;-66
2024/02/08 12:30:21;;;;;;;11.30;5.72;;;7.70;99.90;;;;;;5007533;28;20064;-66
2024/02/08 12:32:51;;;;;;;22.00;6.80;;;7.90;99.90;;;;;;5018157;28;20056;-66
2024/02/08 12:35:20;;;;;;;12.85;5.53;;;7.90;99.90;;;;;;5018266;28;20111;-67
2024/02/08 12:37:48;;;;;;;17.98;4.97;;;7.90;99.90;;;;;;5018234;28;20025;-66
2024/02/08 12:40:16;;;;;;;12.00;4.95;;;7.80;99.90;;;;;;5020157;28;20028;-66
2024/02/08 12:42:43;;;;;;;18.08;5.57;;;7.90;99.90;;;;;;5019423;28;20092;-69
2024/02/08 12:45:11;;;;;;;13.13;5.35;;;8.00;99.90;;;;;;5020282;28;20029;-69
2024/02/08 12:47:41;;;;;;;15.05;5.50;;;7.90;99.90;;;;;;5011704;28;20573;-69
2024/02/08 12:50:09;;;;;;;17.42;5.05;;;7.70;99.90;;;;;;5023678;28;20041;-69
2024/02/08 12:52:41;;;;;;;17.75;5.43;;;7.60;99.90;;;;;;5020586;28;20037;-69
2024/02/08 12:55:13;;;;;;;15.10;5.28;;;7.40;99.90;;;;;;5018263;28;20077;-69
2024/02/08 12:57:40;;;;;;;16.73;5.47;;;7.50;99.90;;;;;;5018411;28;20037;-65
2024/02/08 13:00:07;;;;;;;11.50;4.95;;;7.60;99.90;;;;;;5019810;28;20465;-66
2024/02/08 13:02:33;;;;;;;19.35;5.88;;;7.60;99.90;;;;;;5018491;28;20033;-67
2024/02/08 13:05:03;;;;;;;18.20;6.95;;;7.70;99.90;;;;;;5021289;28;20041;-66
2024/02/08 13:07:29;;;;;;;33.03;13.30;;;7.80;99.90;;;;;;5018164;28;20034;-69
2024/02/08 13:10:03;;;;;;;16.35;7.13;;;7.70;99.90;;;;;;5018647;28;20559;-68
2024/02/08 13:12:30;;;;;;;12.27;5.88;;;7.80;99.90;;;;;;5019557;28;20033;-65
2024/02/08 13:15:02;;;;;;;11.00;5.07;;;7.90;99.90;;;;;;5019272;28;20067;-66
2024/02/08 13:17:32;;;;;;;12.88;4.43;;;8.00;99.90;;;;;;5010950;28;20033;-70
2024/02/08 13:20:00;;;;;;;9.30;4.40;;;8.00;99.90;;;;;;5017163;28;20403;-71
2024/02/08 13:22:33;;;;;;;14.02;5.03;;;8.00;99.90;;;;;;5019658;28;20030;-66
2024/02/08 13:24:59;;;;;;;12.20;4.88;;;8.10;99.90;;;;;;5018644;28;20041;-70
2024/02/08 13:27:30;;;;;;;11.10;4.18;;;8.10;99.90;;;;;;5019296;28;20033;-70
2024/02/08 13:30:00;;;;;;;15.13;4.50;;;8.10;99.90;;;;;;5019118;28;20828;-70
2024/02/08 13:32:29;;;;;;;7.65;4.20;;;8.10;99.90;;;;;;5018281;28;20048;-69
2024/02/08 13:34:58;;;;;;;14.10;4.68;;;8.20;99.90;;;;;;5018052;28;20911;-70
2024/02/08 13:37:26;;;;;;;7.80;3.70;;;8.20;99.90;;;;;;5021131;28;20048;-69
2024/02/08 13:39:59;;;;;;;7.25;4.28;;;8.20;99.90;;;;;;5016587;28;20083;-70
2024/02/08 13:42:29;;;;;;;10.48;3.72;;;8.20;99.90;;;;;;5016654;28;20034;-66
2024/02/08 13:44:58;;;;;;;11.00;3.97;;;8.20;99.90;;;;;;5018582;28;20046;-66
2024/02/08 13:47:27;;;;;;;11.30;4.38;;;8.20;99.90;;;;;;5004410;28;21527;-66
2024/02/08 13:49:57;;;;;;;12.57;4.20;;;8.20;99.90;;;;;;5018156;28;20037;-67
2024/02/08 13:52:26;;;;;;;12.15;4.85;;;8.20;99.90;;;;;;5016722;28;20030;-69
2024/02/08 13:54:55;;;;;;;13.63;5.25;;;8.30;99.90;;;;;;5019094;28;20021;-66
2024/02/08 13:57:21;;;;;;;14.23;4.70;;;8.30;99.90;;;;;;5017025;28;20017;-66
2024/02/08 13:59:48;;;;;;;10.45;5.15;;;8.30;99.90;;;;;;5017480;28;20061;-65
2024/02/08 14:02:20;;;;;;;9.68;4.30;;;8.30;99.90;;;;;;5016452;28;20033;-70
2024/02/08 14:04:55;;;;;;;15.75;5.07;;;8.30;99.90;;;;;;5017383;28;20724;-69
2024/02/08 14:07:30;;;;;;;8.68;4.63;;;8.30;99.90;;;;;;5018548;28;20098;-69
2024/02/08 14:10:01;;;;;;;14.48;4.38;;;8.20;99.90;;;;;;5019520;28;20771;-69
2024/02/08 14:12:27;;;;;;;9.35;4.32;;;8.20;99.90;;;;;;5018794;28;20060;-70
2024/02/08 14:14:54;;;;;;;12.80;4.63;;;8.20;99.90;;;;;;5019175;28;20031;-69
2024/02/08 14:17:34;;;;;;;9.00;4.68;;;8.20;99.90;;;;;;5017575;28;20038;-70
2024/02/08 14:20:52;;;;;;;10.85;4.40;;;8.20;99.90;;;;;;5017250;28;20116;-66
2024/02/08 14:22:59;;;;;;;8.07;4.35;;;8.10;99.90;;;;;;5006707;28;20030;-69
2024/02/08 14:25:37;;;;;;;11.20;3.85;;;8.10;99.90;;;;;;5018897;28;20262;-70
2024/02/08 14:28:12;;;;;;;6.95;3.85;;;8.20;99.90;;;;;;5014897;28;20037;-69
2024/02/08 14:30:40;;;;;;;6.80;3.72;;;8.20;99.90;;;;;;5017125;28;20408;-69
2024/02/08 14:33:07;;;;;;;13.73;4.93;;;8.20;99.90;;;;;;5018061;28;20029;-66
2024/02/08 14:35:33;;;;;;;19.13;8.07;;;8.20;99.90;;;;;;5017461;28;20025;-66
2024/02/08 14:37:59;;;;;;;16.52;7.05;;;8.20;99.90;;;;;;5018392;28;20033;-65
2024/02/08 14:40:27;;;;;;;12.85;6.57;;;8.10;99.90;;;;;;5019679;28;20232;-70
2024/02/08 14:42:57;;;;;;;11.88;5.93;;;8.10;99.90;;;;;;5020579;28;20034;-65
2024/02/08 14:45:35;;;;;;;12.10;5.38;;;8.10;99.90;;;;;;5018734;28;20056;-69
2024/02/08 14:48:09;;;;;;;21.27;6.82;;;8.00;99.90;;;;;;5016955;28;20038;-70
2024/02/08 14:50:55;;;;;;;15.27;6.10;;;8.00;99.90;;;;;;5018073;28;20086;-70
2024/02/08 14:53:22;;;;;;;14.73;5.00;;;8.00;99.90;;;;;;5018677;28;20029;-70
2024/02/08 14:55:51;;;;;;;9.15;4.32;;;8.00;99.90;;;;;;5018399;28;20035;-69
2024/02/08 14:58:33;;;;;;;14.68;6.13;;;7.90;99.90;;;;;;5016353;28;20784;-70
2024/02/08 15:01:08;;;;;;;10.50;4.90;;;7.90;99.90;;;;;;5018914;28;20147;-70
2024/02/08 15:03:38;;;;;;;13.88;6.45;;;7.80;99.90;;;;;;5018880;28;20072;-70
2024/02/08 15:09:57;;;;;;;14.07;6.00;;;7.80;99.90;;;;;;5414757;22;21136;-70
2024/02/08 15:12:31;;;;;;;12.95;5.32;;;7.70;99.90;;;;;;4965843;28;20054;-69
2024/02/08 15:15:03;;;;;;;13.15;4.57;;;7.70;99.90;;;;;;4982921;28;20480;-71
2024/02/08 15:17:29;;;;;;;8.90;4.10;;;7.60;99.90;;;;;;4989468;28;20109;-71
2024/02/08 15:20:36;;;;;;;13.45;3.92;;;7.60;99.90;;;;;;4985048;28;20026;-70
2024/02/08 15:22:49;;;;;;;7.35;3.78;;;7.60;99.90;;;;;;4985902;28;20026;-70
2024/02/08 15:25:17;;;;;;;6.60;3.75;;;7.50;99.90;;;;;;4985871;28;20039;-70
2024/02/08 15:27:52;;;;;;;7.68;3.83;;;7.50;99.90;;;;;;4985566;28;20030;-71
2024/02/08 15:30:36;;;;;;;16.67;4.85;;;7.40;99.90;;;;;;4968672;28;20034;-70
2024/02/08 15:33:16;;;;;;;5.47;3.13;;;7.40;99.90;;;;;;4985806;28;20037;-70
2024/02/08 15:35:52;;;;;;;14.45;4.18;;;7.40;99.90;;;;;;4986232;28;20037;-71
2024/02/08 15:41:19;;;;;;;11.43;5.18;;;7.30;99.90;;;;;;4985650;28;20034;-69
2024/02/08 15:43:48;;;;;;;13.40;5.75;;;7.20;99.90;;;;;;4984810;28;20405;-70
2024/02/08 15:46:19;;;;;;;14.48;6.25;;;7.20;99.90;;;;;;4986850;28;20056;-69
2024/02/08 15:48:45;;;;;;;17.35;6.10;;;7.20;99.90;;;;;;4986244;28;20034;-70
2024/02/08 15:51:12;;;;;;;15.35;5.55;;;7.30;99.90;;;;;;4984777;28;20448;-70
2024/02/08 15:53:56;;;;;;;12.95;5.53;;;7.30;99.90;;;;;;4985031;28;20117;-69
2024/02/08 15:56:25;;;;;;;12.05;5.65;;;7.20;99.90;;;;;;4985329;28;20077;-70
2024/02/08 15:59:03;;;;;;;10.95;6.00;;;7.10;99.90;;;;;;4986049;28;20036;-70